createdAt,value
2022-09-11T00:00:39.687Z,74.84
2022-09-11T00:03:07.689Z,75.39
2022-09-11T00:05:39.356Z,75.43
2022-09-11T00:08:07.868Z,75.22
2022-09-11T00:10:40.085Z,74.37
2022-09-11T00:13:11.823Z,74.44
2022-09-11T00:15:39.883Z,74.80
2022-09-11T00:18:07.694Z,75.24
2022-09-11T00:20:34.861Z,77.22
2022-09-11T00:23:05.032Z,78.43
2022-09-11T00:25:35.905Z,78.44
2022-09-11T00:28:02.945Z,76.99
2022-09-11T00:30:29.815Z,76.07
2022-09-11T00:32:56.490Z,76.75
2022-09-11T00:35:23.725Z,75.90
2022-09-11T00:37:50.337Z,75.34
2022-09-11T00:40:17.996Z,75.13
2022-09-11T00:42:44.777Z,75.41
2022-09-11T00:45:21.101Z,75.51
2022-09-11T00:47:49.062Z,74.96
2022-09-11T00:50:19.933Z,73.98
2022-09-11T00:52:58.818Z,73.64
2022-09-11T00:55:27.850Z,73.96
2022-09-11T00:57:59.519Z,73.21
2022-09-11T01:00:26.040Z,72.95
2022-09-11T01:02:53.526Z,72.71
2022-09-11T01:05:22.412Z,72.21
2022-09-11T01:07:54.153Z,72.20
2022-09-11T01:10:27.107Z,72.00
2022-09-11T01:13:06.484Z,72.60
2022-09-11T01:15:38.974Z,71.83
2022-09-11T01:18:21.769Z,71.79
2022-09-11T01:21:26.012Z,72.05
2022-09-11T01:24:01.218Z,71.77
2022-09-11T01:26:52.205Z,74.37
2022-09-11T01:29:22.053Z,75.72
2022-09-11T01:32:05.657Z,76.83
2022-09-11T01:34:52.723Z,77.67
2022-09-11T01:37:31.292Z,77.75
2022-09-11T01:40:01.694Z,77.66
2022-09-11T01:42:31.554Z,77.63
2022-09-11T01:44:58.073Z,75.97
2022-09-11T01:47:26.086Z,77.33
2022-09-11T01:50:09.390Z,77.92
2022-09-11T01:52:42.193Z,77.33
2022-09-11T01:55:21.540Z,79.33
2022-09-11T01:57:51.041Z,78.67
2022-09-11T02:00:17.745Z,79.69
2022-09-11T02:02:59.049Z,79.44
2022-09-11T02:05:30.283Z,79.13
2022-09-11T02:08:02.326Z,79.64
2022-09-11T02:10:40.829Z,79.49
2022-09-11T02:13:14.598Z,78.15
2022-09-11T02:15:48.928Z,78.40
2022-09-11T02:18:37.664Z,77.87
2022-09-11T02:21:04.346Z,77.22
2022-09-11T02:23:30.815Z,77.39
2022-09-11T02:25:57.285Z,76.82
2022-09-11T02:28:23.943Z,78.49
2022-09-11T02:30:50.418Z,79.84
2022-09-11T02:33:27.889Z,79.81
2022-09-11T02:35:58.915Z,80.04
2022-09-11T02:38:30.146Z,80.31
2022-09-11T02:41:18.149Z,80.09
2022-09-11T02:44:09.580Z,78.51
2022-09-11T02:47:06.134Z,77.44
2022-09-11T02:49:51.484Z,76.86
2022-09-11T02:52:36.812Z,78.30
2022-09-11T02:55:40.492Z,76.83
2022-09-11T02:58:13.452Z,75.68
2022-09-11T03:00:40.325Z,74.53
2022-09-11T03:03:07.458Z,75.21
2022-09-11T03:05:35.440Z,76.21
2022-09-11T03:08:04.329Z,76.06
2022-09-11T03:10:30.831Z,77.41
2022-09-11T03:12:59.547Z,77.08
2022-09-11T03:15:26.714Z,75.24
2022-09-11T03:17:53.198Z,74.70
2022-09-11T03:20:20.788Z,74.88
2022-09-11T03:22:47.494Z,76.81
2022-09-11T03:25:15.027Z,77.60
2022-09-11T03:27:42.157Z,76.10
2022-09-11T03:30:09.814Z,75.16
2022-09-11T03:32:36.254Z,75.59
2022-09-11T03:35:02.748Z,74.51
2022-09-11T03:37:29.332Z,73.19
2022-09-11T03:39:55.870Z,73.03
2022-09-11T03:42:22.392Z,72.13
2022-09-11T03:44:48.987Z,73.08
2022-09-11T03:47:15.520Z,74.21
2022-09-11T03:49:41.990Z,74.42
2022-09-11T03:52:08.683Z,73.76
2022-09-11T03:54:35.495Z,73.89
2022-09-11T03:57:02.219Z,73.90
2022-09-11T03:59:29.135Z,72.63
2022-09-11T04:01:55.643Z,73.19
2022-09-11T04:04:22.302Z,71.87
2022-09-11T04:06:48.955Z,72.21
2022-09-11T04:09:15.701Z,72.06
2022-09-11T04:11:43.099Z,71.42
2022-09-11T04:14:09.789Z,71.10
2022-09-11T04:16:36.476Z,70.76
2022-09-11T04:19:03.627Z,71.70
2022-09-11T04:21:31.212Z,71.73
2022-09-11T04:24:00.419Z,72.87
2022-09-11T04:26:32.114Z,70.82
2022-09-11T04:29:01.820Z,70.46
2022-09-11T04:31:28.408Z,70.66
2022-09-11T04:33:57.748Z,69.80
2022-09-11T04:36:26.882Z,68.82
2022-09-11T04:38:58.267Z,68.40
2022-09-11T04:41:25.411Z,69.56
2022-09-11T04:43:57.000Z,69.88
2022-09-11T04:46:25.780Z,68.83
2022-09-11T04:48:55.425Z,68.36
2022-09-11T04:51:24.614Z,69.64
2022-09-11T04:53:52.176Z,70.29
2022-09-11T04:56:20.712Z,70.91
2022-09-11T04:58:55.870Z,70.81
2022-09-11T05:01:23.759Z,70.98
2022-09-11T05:03:50.310Z,72.69
2022-09-11T05:06:16.775Z,71.99
2022-09-11T05:08:47.159Z,70.03
2022-09-11T05:11:15.764Z,70.40
2022-09-11T05:13:42.781Z,70.94
2022-09-11T05:16:17.341Z,71.75
2022-09-11T05:18:51.985Z,70.97
2022-09-11T05:21:19.111Z,72.95
2022-09-11T05:23:50.448Z,71.84
2022-09-11T05:26:19.495Z,71.38
2022-09-11T05:28:45.991Z,72.30
2022-09-11T05:31:17.625Z,71.61
2022-09-11T05:33:47.361Z,72.02
2022-09-11T05:36:15.546Z,70.74
2022-09-11T05:38:42.809Z,70.70
2022-09-11T05:41:11.623Z,70.07
2022-09-11T05:43:39.039Z,70.58
2022-09-11T05:46:07.037Z,70.67
2022-09-11T05:48:36.656Z,71.60
2022-09-11T05:51:07.382Z,74.58
2022-09-11T05:53:34.253Z,71.06
2022-09-11T05:56:13.980Z,70.76
2022-09-11T05:58:40.872Z,70.23
2022-09-11T06:01:09.996Z,69.95
2022-09-11T06:03:37.264Z,68.73
2022-09-11T06:06:06.643Z,68.15
2022-09-11T06:08:34.549Z,67.56
2022-09-11T06:11:02.699Z,67.47
2022-09-11T06:13:30.147Z,67.82
2022-09-11T06:15:56.665Z,69.39
2022-09-11T06:18:23.139Z,68.62
2022-09-11T06:21:00.966Z,67.58
2022-09-11T06:23:27.565Z,66.35
2022-09-11T06:25:54.412Z,66.29
2022-09-11T06:28:24.085Z,65.55
2022-09-11T06:30:51.038Z,65.11
2022-09-11T06:33:20.526Z,68.14
2022-09-11T06:35:58.167Z,66.08
2022-09-11T06:38:25.881Z,65.67
2022-09-11T06:40:52.905Z,64.99
2022-09-11T06:43:19.686Z,67.58
2022-09-11T06:45:48.234Z,67.14
2022-09-11T06:48:19.072Z,70.49
2022-09-11T06:50:45.829Z,71.18
2022-09-11T06:53:13.116Z,71.18
2022-09-11T06:55:40.518Z,71.52
2022-09-11T06:58:08.452Z,72.36
2022-09-11T07:00:36.118Z,72.22
2022-09-11T07:03:04.054Z,74.67
2022-09-11T07:05:31.004Z,72.15
2022-09-11T07:07:57.879Z,71.60
2022-09-11T07:10:25.029Z,70.19
2022-09-11T07:12:55.747Z,69.79
2022-09-11T07:15:22.522Z,68.70
2022-09-11T07:17:49.126Z,68.23
2022-09-11T07:20:17.153Z,67.53
2022-09-11T07:22:45.484Z,66.35
2022-09-11T07:25:12.369Z,67.71
2022-09-11T07:27:38.863Z,66.02
2022-09-11T07:30:05.963Z,65.23
2022-09-11T07:32:32.531Z,64.32
2022-09-11T07:35:01.665Z,63.83
2022-09-11T07:37:28.161Z,65.16
2022-09-11T07:39:54.633Z,64.35
2022-09-11T07:42:21.142Z,63.99
2022-09-11T07:44:47.728Z,63.31
2022-09-11T07:47:14.178Z,62.21
2022-09-11T07:49:40.661Z,61.02
2022-09-11T07:52:07.149Z,61.39
2022-09-11T07:54:33.705Z,60.25
2022-09-11T07:57:00.415Z,59.71
2022-09-11T07:59:27.822Z,59.18
2022-09-11T08:01:56.251Z,58.36
2022-09-11T08:04:22.854Z,57.68
2022-09-11T08:06:49.637Z,57.72
2022-09-11T08:09:16.288Z,58.44
2022-09-11T08:11:48.689Z,59.32
2022-09-11T08:14:17.528Z,58.76
2022-09-11T08:16:44.838Z,58.80
2022-09-11T08:19:17.470Z,59.28
2022-09-11T08:21:44.537Z,59.35
2022-09-11T08:24:18.283Z,59.25
2022-09-11T08:26:48.743Z,58.76
2022-09-11T08:29:16.228Z,58.55
2022-09-11T08:31:42.743Z,58.66
2022-09-11T08:34:09.838Z,58.61
2022-09-11T08:36:36.814Z,59.56
2022-09-11T08:39:03.720Z,59.36
2022-09-11T08:41:56.448Z,59.64
2022-09-11T08:44:44.109Z,58.29
2022-09-11T08:47:22.172Z,58.68
2022-09-11T08:49:57.411Z,57.68
2022-09-11T08:52:24.075Z,56.91
2022-09-11T08:54:51.757Z,56.16
2022-09-11T08:57:18.184Z,56.51
2022-09-11T08:59:50.715Z,56.03
2022-09-11T09:03:02.989Z,56.17
2022-09-11T09:05:53.205Z,55.88
2022-09-11T09:08:44.779Z,54.88
2022-09-11T09:11:20.442Z,54.00
2022-09-11T09:14:06.705Z,54.07
2022-09-11T09:16:43.946Z,54.18
2022-09-11T09:19:15.080Z,53.20
2022-09-11T09:21:49.785Z,52.86
2022-09-11T09:24:22.034Z,54.18
2022-09-11T09:26:52.584Z,54.34
2022-09-11T09:29:22.792Z,54.71
2022-09-11T09:32:00.001Z,54.15
2022-09-11T09:34:30.912Z,56.17
2022-09-11T09:37:04.363Z,55.18
2022-09-11T09:39:31.607Z,54.38
2022-09-11T09:42:14.862Z,56.65
2022-09-11T09:44:50.494Z,59.23
2022-09-11T09:47:17.409Z,57.83
2022-09-11T09:49:44.985Z,56.72
2022-09-11T09:52:20.223Z,57.06
2022-09-11T09:55:01.656Z,57.11
2022-09-11T09:57:39.852Z,59.89
2022-09-11T10:00:15.655Z,58.18
2022-09-11T10:02:50.846Z,56.91
2022-09-11T10:05:29.564Z,58.23
2022-09-11T10:07:57.120Z,57.92
2022-09-11T10:10:29.242Z,56.60
2022-09-11T10:13:18.178Z,56.13
2022-09-11T10:15:48.291Z,59.15
2022-09-11T10:18:30.786Z,59.14
2022-09-11T10:21:12.242Z,57.57
2022-09-11T10:23:47.107Z,56.26
2022-09-11T10:26:38.905Z,55.77
2022-09-11T10:29:13.332Z,56.10
2022-09-11T10:31:41.434Z,58.07
2022-09-11T10:34:14.914Z,56.82
2022-09-11T10:37:03.765Z,54.66
2022-09-11T10:39:32.775Z,54.71
2022-09-11T10:42:02.064Z,54.72
2022-09-11T10:44:29.674Z,53.33
2022-09-11T10:47:03.925Z,54.13
2022-09-11T10:49:30.478Z,56.47
2022-09-11T10:52:09.148Z,55.94
2022-09-11T10:54:48.229Z,55.04
2022-09-11T10:57:17.898Z,55.43
2022-09-11T10:59:56.920Z,55.18
2022-09-11T11:02:35.273Z,55.36
2022-09-11T11:05:05.511Z,55.90
2022-09-11T11:08:12.093Z,55.30
2022-09-11T11:10:51.197Z,55.31
2022-09-11T11:13:36.563Z,55.42
2022-09-11T11:16:23.141Z,55.32
2022-09-11T11:19:02.440Z,55.25
2022-09-11T11:21:28.914Z,55.06
2022-09-11T11:24:12.138Z,54.51
2022-09-11T11:26:59.633Z,54.16
2022-09-11T11:29:51.023Z,53.49
2022-09-11T11:32:35.323Z,52.90
2022-09-11T11:35:26.725Z,53.21
2022-09-11T11:38:06.860Z,53.08
2022-09-11T11:40:42.431Z,52.73
2022-09-11T11:43:11.731Z,51.96
2022-09-11T11:45:48.202Z,52.42
2022-09-11T11:48:19.138Z,52.04
2022-09-11T11:50:49.273Z,51.70
2022-09-11T11:54:12.234Z,52.42
2022-09-11T11:56:46.124Z,52.35
2022-09-11T11:59:15.933Z,52.29
2022-09-11T12:01:50.395Z,52.14
2022-09-11T12:04:37.547Z,52.11
2022-09-11T12:07:04.624Z,51.74
2022-09-11T12:09:33.811Z,51.13
2022-09-11T12:12:04.895Z,50.84
2022-09-11T12:14:33.778Z,49.93
2022-09-11T12:17:17.807Z,48.87
2022-09-11T12:20:09.265Z,47.64
2022-09-11T12:22:40.509Z,45.67
2022-09-11T12:25:19.571Z,42.69
2022-09-11T12:27:46.018Z,42.35
2022-09-11T12:30:15.971Z,41.20
2022-09-11T12:32:59.946Z,42.55
2022-09-11T12:35:26.463Z,39.71
2022-09-11T12:37:59.111Z,38.94
2022-09-11T12:40:32.927Z,40.97
2022-09-11T12:43:33.897Z,41.93
2022-09-11T12:46:02.134Z,43.14
2022-09-11T12:48:56.220Z,44.82
2022-09-11T12:51:35.300Z,43.45
2022-09-11T12:54:04.828Z,43.10
2022-09-11T12:56:35.959Z,42.01
2022-09-11T12:59:09.356Z,42.44
2022-09-11T13:01:37.777Z,43.00
2022-09-11T13:04:24.717Z,42.56
2022-09-11T13:06:58.067Z,42.32
2022-09-11T13:09:27.985Z,41.78
2022-09-11T13:11:57.136Z,42.90
2022-09-11T13:14:29.515Z,45.37
2022-09-11T13:16:56.944Z,45.81
2022-09-11T13:19:24.509Z,44.24
2022-09-11T13:21:56.612Z,44.95
2022-09-11T13:24:26.146Z,45.08
2022-09-11T13:26:55.215Z,45.36
2022-09-11T13:29:23.078Z,47.19
2022-09-11T13:31:49.793Z,46.05
2022-09-11T13:34:17.500Z,46.43
2022-09-11T13:36:44.697Z,47.19
2022-09-11T13:39:14.444Z,45.64
2022-09-11T13:41:46.809Z,44.40
2022-09-11T13:44:40.464Z,44.52
2022-09-11T13:47:17.688Z,45.32
2022-09-11T13:49:45.031Z,45.54
2022-09-11T13:52:12.675Z,48.06
2022-09-11T13:55:12.490Z,47.41
2022-09-11T13:57:51.101Z,47.67
2022-09-11T14:00:36.476Z,47.37
2022-09-11T14:03:06.821Z,47.53
2022-09-11T14:05:33.861Z,46.82
2022-09-11T14:08:07.495Z,46.14
2022-09-11T14:10:43.243Z,45.08
2022-09-11T14:13:32.977Z,44.52
2022-09-11T14:16:02.226Z,44.26
2022-09-11T14:18:40.553Z,42.91
2022-09-11T14:21:16.068Z,42.53
2022-09-11T14:24:01.288Z,42.66
2022-09-11T14:26:30.903Z,44.27
2022-09-11T14:29:00.980Z,45.32
2022-09-11T14:31:37.922Z,45.49
2022-09-11T14:34:13.285Z,45.29
2022-09-11T14:36:44.114Z,47.38
2022-09-11T14:39:18.821Z,46.47
2022-09-11T14:41:45.643Z,49.05
2022-09-11T14:44:13.995Z,49.54
2022-09-11T14:46:40.568Z,48.81
2022-09-11T14:49:09.576Z,48.09
2022-09-11T14:51:37.652Z,46.37
2022-09-11T14:54:05.566Z,44.43
2022-09-11T14:56:32.242Z,44.15
2022-09-11T14:58:58.866Z,45.62
2022-09-11T15:01:28.365Z,44.52
2022-09-11T15:03:56.901Z,43.45
2022-09-11T15:06:24.256Z,43.77
2022-09-11T15:08:51.578Z,44.01
2022-09-11T15:11:18.156Z,44.83
2022-09-11T15:14:10.907Z,45.42
2022-09-11T15:16:31.380Z,47.52
2022-09-11T15:19:00.876Z,46.92
2022-09-11T15:21:27.779Z,46.77
2022-09-11T15:23:55.242Z,45.53
2022-09-11T15:26:21.754Z,45.08
2022-09-11T15:28:53.251Z,43.73
2022-09-11T15:31:20.131Z,44.82
2022-09-11T15:33:53.331Z,43.78
2022-09-11T15:36:25.119Z,44.85
2022-09-11T15:38:55.179Z,44.60
2022-09-11T15:41:22.729Z,43.61
2022-09-11T15:43:50.414Z,44.46
2022-09-11T15:46:18.973Z,46.39
2022-09-11T15:48:45.757Z,45.77
2022-09-11T15:51:17.484Z,44.73
2022-09-11T15:53:47.143Z,45.78
2022-09-11T15:56:21.641Z,45.93
2022-09-11T15:58:52.384Z,45.77
2022-09-11T16:01:21.770Z,46.10
2022-09-11T16:03:57.173Z,46.99
2022-09-11T16:06:26.224Z,47.31
2022-09-11T16:08:57.345Z,47.67
2022-09-11T16:11:25.058Z,46.11
2022-09-11T16:13:52.852Z,45.08
2022-09-11T16:16:20.376Z,45.37
2022-09-11T16:18:47.261Z,47.09
2022-09-11T16:21:15.789Z,48.10
2022-09-11T16:23:43.764Z,47.75
2022-09-11T16:26:18.660Z,49.47
2022-09-11T16:28:47.028Z,50.14
2022-09-11T16:31:14.516Z,50.70
2022-09-11T16:33:44.188Z,51.09
2022-09-11T16:36:17.077Z,51.09
2022-09-11T16:38:44.590Z,51.66
2022-09-11T16:41:18.800Z,52.97
2022-09-11T16:43:52.542Z,51.89
2022-09-11T16:46:24.924Z,51.96
2022-09-11T16:48:54.109Z,52.42
2022-09-11T16:51:23.452Z,51.42
2022-09-11T16:53:50.694Z,51.33
2022-09-11T16:56:20.295Z,51.27
2022-09-11T16:58:47.544Z,51.84
2022-09-11T17:01:19.296Z,51.69
2022-09-11T17:03:48.525Z,51.72
2022-09-11T17:06:16.226Z,52.03
2022-09-11T17:08:44.552Z,52.92
2022-09-11T17:11:13.987Z,53.08
2022-09-11T17:13:42.061Z,53.50
2022-09-11T17:16:15.916Z,53.18
2022-09-11T17:18:47.312Z,52.84
2022-09-11T17:21:15.239Z,53.82
2022-09-11T17:23:42.202Z,54.43
2022-09-11T17:26:10.550Z,55.13
2022-09-11T17:28:37.510Z,54.59
2022-09-11T17:31:06.168Z,54.91
2022-09-11T17:33:32.717Z,55.45
2022-09-11T17:35:59.691Z,55.41
2022-09-11T17:38:26.649Z,56.97
2022-09-11T17:40:57.818Z,57.11
2022-09-11T17:43:24.698Z,57.22
2022-09-11T17:45:52.302Z,57.58
2022-09-11T17:48:20.101Z,57.85
2022-09-11T17:50:47.482Z,57.80
2022-09-11T17:53:14.348Z,58.04
2022-09-11T17:55:42.264Z,58.09
2022-09-11T17:58:08.874Z,58.02
2022-09-11T18:00:35.706Z,58.21
2022-09-11T18:03:02.271Z,57.60
2022-09-11T18:05:28.838Z,57.83
2022-09-11T18:07:59.936Z,58.05
2022-09-11T18:10:27.716Z,58.09
2022-09-11T18:12:54.238Z,58.04
2022-09-11T18:15:21.176Z,57.72
2022-09-11T18:17:48.076Z,57.80
2022-09-11T18:20:15.013Z,57.75
2022-09-11T18:22:42.438Z,58.82
2022-09-11T18:25:09.939Z,60.15
2022-09-11T18:27:36.658Z,60.42
2022-09-11T18:30:05.924Z,60.52
2022-09-11T18:32:33.006Z,61.50
2022-09-11T18:35:00.044Z,62.59
2022-09-11T18:37:26.764Z,62.95
2022-09-11T18:39:53.425Z,62.87
2022-09-11T18:42:19.941Z,62.78
2022-09-11T18:44:46.445Z,62.70
2022-09-11T18:47:17.608Z,60.47
2022-09-11T18:49:46.017Z,61.09
2022-09-11T18:52:15.148Z,60.48
2022-09-11T18:54:41.691Z,60.80
2022-09-11T18:57:08.974Z,61.05
2022-09-11T18:59:35.496Z,60.42
2022-09-11T19:02:02.368Z,60.60
2022-09-11T19:04:28.951Z,60.36
2022-09-11T19:06:55.489Z,59.95
2022-09-11T19:09:22.144Z,60.16
2022-09-11T19:11:48.659Z,60.49
2022-09-11T19:14:15.528Z,61.55
2022-09-11T19:16:42.564Z,61.38
2022-09-11T19:19:09.332Z,60.95
2022-09-11T19:21:37.763Z,61.28
2022-09-11T19:24:04.649Z,61.13
2022-09-11T19:26:34.445Z,61.24
2022-09-11T19:29:01.179Z,61.00
2022-09-11T19:31:29.601Z,62.76
2022-09-11T19:33:57.354Z,61.92
2022-09-11T19:36:28.619Z,61.71
2022-09-11T19:39:01.679Z,60.70
2022-09-11T19:41:34.665Z,60.89
2022-09-11T19:44:02.330Z,61.42
2022-09-11T19:46:30.245Z,60.74
2022-09-11T19:49:00.753Z,60.83
2022-09-11T19:51:30.121Z,60.83
2022-09-11T19:53:57.794Z,60.66
2022-09-11T19:56:25.905Z,60.59
2022-09-11T19:58:53.224Z,60.98
2022-09-11T20:01:22.713Z,60.58
2022-09-11T20:03:51.036Z,60.40
2022-09-11T20:06:18.617Z,62.04
2022-09-11T20:08:47.121Z,61.18
2022-09-11T20:11:16.871Z,61.07
2022-09-11T20:13:43.943Z,60.78
2022-09-11T20:16:13.138Z,61.03
2022-09-11T20:18:39.679Z,61.03
2022-09-11T20:21:08.434Z,60.91
2022-09-11T20:23:35.647Z,61.17
2022-09-11T20:26:17.608Z,61.15
2022-09-11T20:28:49.736Z,61.18
2022-09-11T20:31:17.325Z,62.09
2022-09-11T20:33:44.940Z,61.11
2022-09-11T20:36:14.898Z,60.83
2022-09-11T20:38:41.589Z,61.09
2022-09-11T20:41:13.790Z,60.85
2022-09-11T20:43:41.437Z,60.50
2022-09-11T20:46:08.436Z,60.54
2022-09-11T20:48:35.058Z,60.60
2022-09-11T20:51:10.122Z,60.54
2022-09-11T20:53:38.092Z,60.67
2022-09-11T20:56:09.626Z,61.17
2022-09-11T20:58:36.866Z,61.23
2022-09-11T21:01:04.409Z,60.83
2022-09-11T21:03:31.262Z,60.70
2022-09-11T21:05:58.314Z,60.55
2022-09-11T21:08:27.623Z,59.85
2022-09-11T21:10:54.095Z,60.14
2022-09-11T21:13:20.534Z,60.11
2022-09-11T21:15:48.225Z,60.04
2022-09-11T21:18:15.008Z,59.59
2022-09-11T21:20:41.856Z,59.51
2022-09-11T21:23:08.355Z,59.69
2022-09-11T21:25:40.084Z,59.88
2022-09-11T21:28:06.697Z,59.54
2022-09-11T21:30:33.267Z,59.46
2022-09-11T21:32:59.752Z,59.53
2022-09-11T21:35:26.182Z,60.10
2022-09-11T21:37:52.642Z,60.36
2022-09-11T21:40:19.183Z,60.31
2022-09-11T21:42:45.692Z,60.17
2022-09-11T21:45:12.344Z,60.72
2022-09-11T21:47:38.821Z,60.62
2022-09-11T21:50:06.973Z,60.71
2022-09-11T21:52:33.975Z,60.83
2022-09-11T21:55:00.613Z,61.10
2022-09-11T21:57:28.776Z,61.40
2022-09-11T21:59:58.613Z,61.08
2022-09-11T22:02:26.099Z,62.01
2022-09-11T22:04:53.120Z,62.69
2022-09-11T22:07:20.053Z,62.36
2022-09-11T22:09:47.953Z,62.24
2022-09-11T22:12:14.942Z,62.19
2022-09-11T22:14:44.206Z,62.07
2022-09-11T22:17:11.778Z,61.76
2022-09-11T22:19:38.270Z,62.06
2022-09-11T22:22:04.978Z,61.45
2022-09-11T22:24:31.651Z,61.71
2022-09-11T22:26:58.128Z,61.29
2022-09-11T22:29:24.636Z,60.99
2022-09-11T22:31:51.223Z,61.37
2022-09-11T22:34:17.763Z,61.22
2022-09-11T22:36:44.207Z,61.03
2022-09-11T22:39:10.653Z,63.07
2022-09-11T22:41:37.098Z,65.09
2022-09-11T22:44:03.977Z,63.17
2022-09-11T22:46:30.415Z,62.19
2022-09-11T22:48:56.894Z,61.52
2022-09-11T22:51:23.603Z,61.51
2022-09-11T22:53:50.911Z,61.42
2022-09-11T22:56:17.359Z,61.01
2022-09-11T22:58:44.045Z,60.83
2022-09-11T23:01:12.124Z,60.90
2022-09-11T23:03:38.807Z,60.73
2022-09-11T23:06:24.030Z,60.88
2022-09-11T23:08:51.019Z,60.98
2022-09-11T23:11:19.802Z,60.95
2022-09-11T23:13:49.727Z,60.95
2022-09-11T23:16:21.572Z,60.58
2022-09-11T23:18:48.380Z,59.90
2022-09-11T23:21:15.507Z,60.15
2022-09-11T23:23:42.943Z,59.92
2022-09-11T23:26:13.720Z,59.82
2022-09-11T23:28:40.664Z,60.28
2022-09-11T23:31:13.939Z,60.81
2022-09-11T23:33:41.464Z,60.56
2022-09-11T23:36:09.658Z,60.24
2022-09-11T23:38:36.158Z,60.27
2022-09-11T23:41:02.605Z,60.32
2022-09-11T23:43:29.046Z,60.35
2022-09-11T23:45:55.690Z,60.17
2022-09-11T23:48:22.188Z,60.29
2022-09-11T23:50:48.835Z,59.87
2022-09-11T23:53:15.278Z,60.55
2022-09-11T23:55:42.459Z,60.51
2022-09-11T23:58:09.098Z,60.95
